createdAt,value
2022-09-18T00:01:42.475Z,2.67
2022-09-18T00:04:14.941Z,2.33
2022-09-18T00:06:45.862Z,2.80
2022-09-18T00:09:16.033Z,2.27
2022-09-18T00:11:46.308Z,2.20
2022-09-18T00:14:16.644Z,2.07
2022-09-18T00:16:45.163Z,2.63
2022-09-18T00:19:14.998Z,2.20
2022-09-18T00:21:45.886Z,2.20
2022-09-18T00:24:18.744Z,1.73
2022-09-18T00:26:47.430Z,1.90
2022-09-18T00:29:17.269Z,2.10
2022-09-18T00:31:46.471Z,2.20
2022-09-18T00:34:16.553Z,2.40
2022-09-18T00:36:46.441Z,2.10
2022-09-18T00:39:15.293Z,2.10
2022-09-18T00:41:44.980Z,2.40
2022-09-18T00:44:36.634Z,2.20
2022-09-18T00:47:19.334Z,2.20
2022-09-18T00:49:51.012Z,1.73
2022-09-18T00:52:25.458Z,1.60
2022-09-18T00:54:57.625Z,1.90
2022-09-18T00:57:30.450Z,1.50
2022-09-18T00:59:59.068Z,1.83
2022-09-18T01:02:28.050Z,1.30
2022-09-18T01:04:56.598Z,1.63
2022-09-18T01:07:38.186Z,1.80
2022-09-18T01:10:24.430Z,1.63
2022-09-18T01:12:56.440Z,1.50
2022-09-18T01:15:31.927Z,1.53
2022-09-18T01:18:10.875Z,1.67
2022-09-18T01:20:55.643Z,1.77
2022-09-18T01:24:02.918Z,1.77
2022-09-18T01:26:45.000Z,2.07
2022-09-18T01:29:22.890Z,1.77
2022-09-18T01:31:56.564Z,1.90
2022-09-18T01:34:31.421Z,1.70
2022-09-18T01:37:05.092Z,1.67
2022-09-18T01:39:38.930Z,1.97
2022-09-18T01:42:11.102Z,1.97
2022-09-18T01:44:45.524Z,2.30
2022-09-18T01:47:16.158Z,2.20
2022-09-18T01:49:47.859Z,2.10
2022-09-18T01:52:21.932Z,2.27
2022-09-18T01:54:57.736Z,2.20
2022-09-18T01:57:29.528Z,2.27
2022-09-18T02:00:03.793Z,3.07
2022-09-18T02:02:48.276Z,3.23
2022-09-18T02:05:22.234Z,3.73
2022-09-18T02:08:10.476Z,3.97
2022-09-18T02:10:52.062Z,3.80
2022-09-18T02:13:25.477Z,3.67
2022-09-18T02:16:02.520Z,4.00
2022-09-18T02:18:34.781Z,3.30
2022-09-18T02:21:11.328Z,3.23
2022-09-18T02:23:42.252Z,3.30
2022-09-18T02:26:15.096Z,3.73
2022-09-18T02:28:44.959Z,3.33
2022-09-18T02:31:15.063Z,3.07
2022-09-18T02:33:43.702Z,3.60
2022-09-18T02:36:38.036Z,3.20
2022-09-18T02:39:18.813Z,3.07
2022-09-18T02:41:55.181Z,3.27
2022-09-18T02:44:31.036Z,2.97
2022-09-18T02:47:10.460Z,3.83
2022-09-18T02:49:47.656Z,3.33
2022-09-18T02:52:20.014Z,3.30
2022-09-18T02:54:56.313Z,3.23
2022-09-18T02:57:31.960Z,3.40
2022-09-18T03:00:02.834Z,3.30
2022-09-18T03:02:35.153Z,3.03
2022-09-18T03:05:03.824Z,2.90
2022-09-18T03:07:55.040Z,2.87
2022-09-18T03:10:23.456Z,3.33
2022-09-18T03:12:52.224Z,4.37
2022-09-18T03:15:22.321Z,4.03
2022-09-18T03:17:53.682Z,5.33
2022-09-18T03:20:22.177Z,4.47
2022-09-18T03:22:50.892Z,3.70
2022-09-18T03:25:19.704Z,4.23
2022-09-18T03:27:47.986Z,4.77
2022-09-18T03:30:26.541Z,3.73
2022-09-18T03:32:56.760Z,4.57
2022-09-18T03:35:25.388Z,4.00
2022-09-18T03:37:58.537Z,3.63
2022-09-18T03:40:31.164Z,3.80
2022-09-18T03:43:02.647Z,3.70
2022-09-18T03:45:31.045Z,4.03
2022-09-18T03:48:00.872Z,3.73
2022-09-18T03:50:30.040Z,3.80
2022-09-18T03:52:58.517Z,3.63
2022-09-18T03:55:37.930Z,3.73
2022-09-18T03:58:29.382Z,3.27
2022-09-18T04:01:32.326Z,3.20
2022-09-18T04:04:37.626Z,3.63
2022-09-18T04:07:14.956Z,3.00
2022-09-18T04:10:00.513Z,3.37
2022-09-18T04:12:29.293Z,3.23
2022-09-18T04:15:10.763Z,2.97
2022-09-18T04:17:39.089Z,3.00
2022-09-18T04:20:09.784Z,3.43
2022-09-18T04:22:38.464Z,3.13
2022-09-18T04:25:07.809Z,3.67
2022-09-18T04:27:36.397Z,3.37
2022-09-18T04:30:05.219Z,3.20
2022-09-18T04:32:36.175Z,2.77
2022-09-18T04:35:05.855Z,3.20
2022-09-18T04:37:35.948Z,2.80
2022-09-18T04:40:05.472Z,3.13
2022-09-18T04:42:33.900Z,2.87
2022-09-18T04:45:03.308Z,2.50
2022-09-18T04:47:31.918Z,2.87
2022-09-18T04:50:00.340Z,3.23
2022-09-18T04:52:31.337Z,3.10
2022-09-18T04:55:01.054Z,3.00
2022-09-18T04:57:29.833Z,3.00
2022-09-18T04:59:58.085Z,2.90
2022-09-18T05:02:26.482Z,3.17
2022-09-18T05:04:55.385Z,3.10
2022-09-18T05:07:32.210Z,3.03
2022-09-18T05:10:02.157Z,3.20
2022-09-18T05:12:32.806Z,3.30
2022-09-18T05:15:01.446Z,3.13
2022-09-18T05:17:30.185Z,3.00
2022-09-18T05:20:01.387Z,3.60
2022-09-18T05:22:36.843Z,3.70
2022-09-18T05:25:11.504Z,3.07
2022-09-18T05:27:39.875Z,4.00
2022-09-18T05:30:10.630Z,3.67
2022-09-18T05:32:59.282Z,4.03
2022-09-18T05:35:31.936Z,4.00
2022-09-18T05:38:01.451Z,3.50
2022-09-18T05:40:34.591Z,5.03
2022-09-18T05:43:03.961Z,3.90
2022-09-18T05:45:34.668Z,3.50
2022-09-18T05:48:08.641Z,4.37
2022-09-18T05:50:37.540Z,3.47
2022-09-18T05:53:08.605Z,3.10
2022-09-18T05:55:48.095Z,3.77
2022-09-18T05:58:18.023Z,4.00
2022-09-18T06:00:47.116Z,3.30
2022-09-18T06:03:24.724Z,3.80
2022-09-18T06:05:54.633Z,3.23
2022-09-18T06:08:24.424Z,4.07
2022-09-18T06:10:54.810Z,3.90
2022-09-18T06:13:23.254Z,4.43
2022-09-18T06:15:54.093Z,3.93
2022-09-18T06:18:33.198Z,4.00
2022-09-18T06:21:03.322Z,4.27
2022-09-18T06:23:32.583Z,3.50
2022-09-18T06:26:11.477Z,3.80
2022-09-18T06:28:43.152Z,4.00
2022-09-18T06:31:12.097Z,4.23
2022-09-18T06:34:04.056Z,4.07
2022-09-18T06:36:32.437Z,3.97
2022-09-18T06:39:20.998Z,4.00
2022-09-18T06:41:53.917Z,4.00
2022-09-18T06:44:32.537Z,3.70
2022-09-18T06:47:05.540Z,4.00
2022-09-18T06:49:41.984Z,3.50
2022-09-18T06:52:10.692Z,3.80
2022-09-18T06:54:42.639Z,3.67
2022-09-18T06:57:12.392Z,3.30
2022-09-18T06:59:40.753Z,3.40
2022-09-18T07:02:18.583Z,4.20
2022-09-18T07:04:57.441Z,3.17
2022-09-18T07:07:26.833Z,3.10
2022-09-18T07:09:57.625Z,3.73
2022-09-18T07:12:32.695Z,3.53
2022-09-18T07:15:04.139Z,3.83
2022-09-18T07:17:33.202Z,3.60
2022-09-18T07:20:03.373Z,3.23
2022-09-18T07:22:43.702Z,3.10
2022-09-18T07:25:14.937Z,3.57
2022-09-18T07:27:46.465Z,3.03
2022-09-18T07:30:16.907Z,3.63
2022-09-18T07:32:46.606Z,2.77
2022-09-18T07:35:18.977Z,2.87
2022-09-18T07:37:47.340Z,3.37
2022-09-18T07:40:20.768Z,3.40
2022-09-18T07:43:09.004Z,2.73
2022-09-18T07:45:40.925Z,3.40
2022-09-18T07:48:09.359Z,3.17
2022-09-18T07:50:43.463Z,3.13
2022-09-18T07:53:11.801Z,2.80
2022-09-18T07:55:45.364Z,3.10
2022-09-18T07:58:15.908Z,3.07
2022-09-18T08:00:57.097Z,2.50
2022-09-18T08:03:26.440Z,3.13
2022-09-18T08:06:23.984Z,2.83
2022-09-18T08:09:03.297Z,2.90
2022-09-18T08:11:57.988Z,2.93
2022-09-18T08:14:41.807Z,2.73
2022-09-18T08:17:32.828Z,2.97
2022-09-18T08:20:11.998Z,3.03
2022-09-18T08:22:50.930Z,3.00
2022-09-18T08:25:21.358Z,3.07
2022-09-18T08:27:51.242Z,2.90
2022-09-18T08:30:32.313Z,2.97
2022-09-18T08:33:06.756Z,2.97
2022-09-18T08:35:35.865Z,2.97
2022-09-18T08:38:17.359Z,2.90
2022-09-18T08:41:12.746Z,3.10
2022-09-18T08:44:00.328Z,3.00
2022-09-18T08:46:36.769Z,3.93
2022-09-18T08:49:18.551Z,3.13
2022-09-18T08:51:54.585Z,3.27
2022-09-18T08:54:30.021Z,3.20
2022-09-18T08:57:38.474Z,3.33
2022-09-18T09:00:20.668Z,3.27
2022-09-18T09:03:24.320Z,3.23
2022-09-18T09:05:59.442Z,2.90
2022-09-18T09:08:46.992Z,2.97
2022-09-18T09:11:23.681Z,2.60
2022-09-18T09:14:16.395Z,2.87
2022-09-18T09:16:51.348Z,2.53
2022-09-18T09:19:31.507Z,2.40
2022-09-18T09:22:08.591Z,2.10
2022-09-18T09:24:46.999Z,2.00
2022-09-18T09:28:00.111Z,1.77
2022-09-18T09:30:54.655Z,1.97
2022-09-18T09:33:53.357Z,2.00
2022-09-18T09:36:43.506Z,2.17
2022-09-18T09:39:19.833Z,2.20
2022-09-18T09:41:54.995Z,1.80
2022-09-18T09:44:30.693Z,1.60
2022-09-18T09:47:14.734Z,2.20
2022-09-18T09:49:56.358Z,1.60
2022-09-18T09:52:27.934Z,1.60
2022-09-18T09:55:19.677Z,0.90
2022-09-18T09:58:00.957Z,0.83
2022-09-18T10:00:35.248Z,0.87
2022-09-18T10:03:29.837Z,0.90
2022-09-18T10:06:03.835Z,1.30
2022-09-18T10:08:42.013Z,0.70
2022-09-18T10:11:13.208Z,0.70
2022-09-18T10:13:49.906Z,0.80
2022-09-18T10:16:21.580Z,0.70
2022-09-18T10:18:50.997Z,0.83
2022-09-18T10:21:23.452Z,0.80
2022-09-18T10:24:00.064Z,1.40
2022-09-18T10:26:35.920Z,0.83
2022-09-18T10:29:04.405Z,0.73
2022-09-18T10:31:49.409Z,0.70
2022-09-18T10:34:40.207Z,0.70
2022-09-18T10:37:15.807Z,0.80
2022-09-18T10:39:54.017Z,0.80
2022-09-18T10:42:25.608Z,0.70
2022-09-18T10:45:04.836Z,0.80
2022-09-18T10:47:37.627Z,0.70
2022-09-18T10:50:19.161Z,0.70
2022-09-18T10:52:54.050Z,0.70
2022-09-18T10:55:32.241Z,0.70
2022-09-18T10:58:14.310Z,0.60
2022-09-18T11:00:50.958Z,0.60
2022-09-18T11:03:49.945Z,1.50
2022-09-18T11:06:29.773Z,0.60
2022-09-18T11:09:03.277Z,0.70
2022-09-18T11:11:38.427Z,0.70
2022-09-18T11:14:19.126Z,0.70
2022-09-18T11:16:59.135Z,1.00
2022-09-18T11:19:30.992Z,0.70
2022-09-18T11:22:03.785Z,0.70
2022-09-18T11:24:42.008Z,0.70
2022-09-18T11:27:21.783Z,0.70
2022-09-18T11:29:52.179Z,0.70
2022-09-18T11:32:25.267Z,0.80
2022-09-18T11:34:58.932Z,0.70
2022-09-18T11:37:36.814Z,0.80
2022-09-18T11:40:15.878Z,0.80
2022-09-18T11:42:50.732Z,0.70
2022-09-18T11:45:35.776Z,0.60
2022-09-18T11:48:12.511Z,0.70
2022-09-18T11:50:41.031Z,0.60
2022-09-18T11:53:17.749Z,0.60
2022-09-18T11:55:51.005Z,0.67
2022-09-18T11:58:26.951Z,0.77
2022-09-18T12:01:10.746Z,0.47
2022-09-18T12:03:44.823Z,0.50
2022-09-18T12:06:22.676Z,0.50
2022-09-18T12:08:58.756Z,0.40
2022-09-18T12:11:37.428Z,0.50
2022-09-18T12:14:15.659Z,0.52
2022-09-18T12:17:00.753Z,0.40
2022-09-18T12:19:35.622Z,0.60
2022-09-18T12:22:12.436Z,0.50
2022-09-18T12:24:41.484Z,0.43
2022-09-18T12:27:27.661Z,0.60
2022-09-18T12:30:04.879Z,0.60
2022-09-18T12:32:59.090Z,0.70
2022-09-18T12:35:46.748Z,0.38
2022-09-18T12:38:31.121Z,0.63
2022-09-18T12:41:13.318Z,0.40
2022-09-18T12:43:59.491Z,0.40
2022-09-18T12:46:38.478Z,0.50
2022-09-18T12:49:31.045Z,0.40
2022-09-18T12:52:08.356Z,0.20
2022-09-18T12:55:05.064Z,0.63
2022-09-18T12:57:45.399Z,0.53
2022-09-18T13:00:16.277Z,0.50
2022-09-18T13:02:53.556Z,0.60
2022-09-18T13:05:28.473Z,0.50
2022-09-18T13:08:04.121Z,0.53
2022-09-18T13:10:38.755Z,0.57
2022-09-18T13:13:14.338Z,0.60
2022-09-18T13:15:47.301Z,1.10
2022-09-18T13:18:27.840Z,0.50
2022-09-18T13:21:02.244Z,0.80
2022-09-18T13:23:33.892Z,0.52
2022-09-18T13:26:03.952Z,0.60
2022-09-18T13:28:33.384Z,0.80
2022-09-18T13:31:26.418Z,0.50
2022-09-18T13:33:59.033Z,0.73
2022-09-18T13:36:29.812Z,0.50
2022-09-18T13:39:05.978Z,0.50
2022-09-18T13:41:43.731Z,0.50
2022-09-18T13:44:20.518Z,0.67
2022-09-18T13:46:50.388Z,0.65
2022-09-18T13:49:29.815Z,0.47
2022-09-18T13:52:18.360Z,0.70
2022-09-18T13:55:01.927Z,0.60
2022-09-18T13:57:31.907Z,0.53
2022-09-18T14:00:02.441Z,0.70
2022-09-18T14:02:41.420Z,0.70
2022-09-18T14:05:34.026Z,0.40
2022-09-18T14:08:36.230Z,0.77
2022-09-18T14:11:17.761Z,0.43
2022-09-18T14:13:54.609Z,0.50
2022-09-18T14:16:30.789Z,0.70
2022-09-18T14:19:04.255Z,0.70
2022-09-18T14:21:34.627Z,0.40
2022-09-18T14:24:21.143Z,0.40
2022-09-18T14:27:02.885Z,0.50
2022-09-18T14:29:34.542Z,0.60
2022-09-18T14:32:03.725Z,0.60
2022-09-18T14:34:37.250Z,0.57
2022-09-18T14:37:24.593Z,0.60
2022-09-18T14:39:55.379Z,0.50
2022-09-18T14:42:33.111Z,0.60
2022-09-18T14:45:19.571Z,0.80
2022-09-18T14:47:49.930Z,0.80
2022-09-18T14:50:29.232Z,0.70
2022-09-18T14:52:58.751Z,0.73
2022-09-18T14:55:32.401Z,0.80
2022-09-18T14:58:06.246Z,0.90
2022-09-18T15:00:36.914Z,1.00
2022-09-18T15:03:08.765Z,0.90
2022-09-18T15:05:37.963Z,0.93
2022-09-18T15:08:10.545Z,1.00
2022-09-18T15:10:40.831Z,1.20
2022-09-18T15:13:13.449Z,0.90
2022-09-18T15:15:44.122Z,1.20
2022-09-18T15:18:21.304Z,0.83
2022-09-18T15:20:51.536Z,1.03
2022-09-18T15:23:21.786Z,1.30
2022-09-18T15:25:53.121Z,1.27
2022-09-18T15:28:25.477Z,1.13
2022-09-18T15:31:00.577Z,1.37
2022-09-18T15:33:29.364Z,1.10
2022-09-18T15:35:58.448Z,1.20
2022-09-18T15:38:35.169Z,1.30
2022-09-18T15:41:22.361Z,1.40
2022-09-18T15:43:52.078Z,2.00
2022-09-18T15:46:28.409Z,1.50
2022-09-18T15:49:00.421Z,1.87
2022-09-18T15:51:30.229Z,1.00
2022-09-18T15:54:17.754Z,1.90
2022-09-18T15:56:51.733Z,1.00
2022-09-18T15:59:31.286Z,1.07
2022-09-18T16:02:04.888Z,1.53
2022-09-18T16:04:34.550Z,1.17
2022-09-18T16:07:06.047Z,1.30
2022-09-18T16:09:42.970Z,1.70
2022-09-18T16:12:37.977Z,1.30
2022-09-18T16:15:23.149Z,1.27
2022-09-18T16:18:06.145Z,1.10
2022-09-18T16:20:39.463Z,1.00
2022-09-18T16:23:24.119Z,0.90
2022-09-18T16:26:10.662Z,0.70
2022-09-18T16:28:42.980Z,0.60
2022-09-18T16:31:15.307Z,1.00
2022-09-18T16:33:55.558Z,0.70
2022-09-18T16:36:30.455Z,1.03
2022-09-18T16:39:01.604Z,0.60
2022-09-18T16:41:31.224Z,0.70
2022-09-18T16:44:01.048Z,0.70
2022-09-18T16:46:35.347Z,0.80
2022-09-18T16:49:04.144Z,1.50
2022-09-18T16:51:33.122Z,1.00
2022-09-18T16:54:01.535Z,1.00
2022-09-18T16:56:32.808Z,2.97
2022-09-18T16:59:04.398Z,0.70
2022-09-18T17:01:53.918Z,0.70
2022-09-18T17:04:25.219Z,0.93
2022-09-18T17:06:53.857Z,1.00
2022-09-18T17:09:23.853Z,0.93
2022-09-18T17:11:52.232Z,1.20
2022-09-18T17:14:20.843Z,0.80
2022-09-18T17:16:50.684Z,3.00
2022-09-18T17:19:19.238Z,1.23
2022-09-18T17:21:47.730Z,1.10
2022-09-18T17:24:17.377Z,0.90
2022-09-18T17:26:45.668Z,1.00
2022-09-18T17:29:14.023Z,0.63
2022-09-18T17:31:42.605Z,0.63
2022-09-18T17:34:12.474Z,0.70
2022-09-18T17:36:41.082Z,0.93
2022-09-18T17:39:09.351Z,1.63
2022-09-18T17:41:38.186Z,2.23
2022-09-18T17:44:10.136Z,1.03
2022-09-18T17:46:38.516Z,1.10
2022-09-18T17:49:07.253Z,1.03
2022-09-18T17:51:37.136Z,0.80
2022-09-18T17:54:06.716Z,0.77
2022-09-18T17:56:35.305Z,1.30
2022-09-18T17:59:06.273Z,1.07
2022-09-18T18:01:37.612Z,1.50
2022-09-18T18:04:06.615Z,1.20
2022-09-18T18:06:37.004Z,1.10
2022-09-18T18:09:06.672Z,0.83
2022-09-18T18:11:35.135Z,0.90
2022-09-18T18:14:03.500Z,0.93
2022-09-18T18:16:32.633Z,1.20
2022-09-18T18:19:03.290Z,0.80
2022-09-18T18:21:33.383Z,1.40
2022-09-18T18:24:05.500Z,1.57
2022-09-18T18:26:34.091Z,0.90
2022-09-18T18:29:03.300Z,2.17
2022-09-18T18:31:34.139Z,1.10
2022-09-18T18:34:02.629Z,1.20
2022-09-18T18:36:33.639Z,0.90
2022-09-18T18:39:05.944Z,1.10
2022-09-18T18:41:34.788Z,1.30
2022-09-18T18:44:05.765Z,1.20
2022-09-18T18:46:36.731Z,1.10
2022-09-18T18:49:09.467Z,1.20
2022-09-18T18:51:45.633Z,0.67
2022-09-18T18:54:16.967Z,1.00
2022-09-18T18:56:46.386Z,0.87
2022-09-18T18:59:16.461Z,0.70
2022-09-18T19:01:45.606Z,0.77
2022-09-18T19:04:15.899Z,0.80
2022-09-18T19:06:45.256Z,0.80
2022-09-18T19:09:20.307Z,1.10
2022-09-18T19:11:49.796Z,0.80
2022-09-18T19:14:20.480Z,0.90
2022-09-18T19:16:49.957Z,1.47
2022-09-18T19:19:23.451Z,0.93
2022-09-18T19:21:52.250Z,1.30
2022-09-18T19:24:22.544Z,1.10
2022-09-18T19:26:50.972Z,0.93
2022-09-18T19:29:21.655Z,1.50
2022-09-18T19:31:50.939Z,1.30
2022-09-18T19:34:21.154Z,1.10
2022-09-18T19:36:50.476Z,1.00
2022-09-18T19:39:24.080Z,0.90
2022-09-18T19:41:55.885Z,1.00
2022-09-18T19:44:31.296Z,1.33
2022-09-18T19:47:03.348Z,0.93
2022-09-18T19:49:34.594Z,1.00
2022-09-18T19:52:03.354Z,1.00
2022-09-18T19:54:33.297Z,1.37
2022-09-18T19:57:01.613Z,1.30
2022-09-18T19:59:29.968Z,1.30
2022-09-18T20:01:58.593Z,1.50
2022-09-18T20:04:26.977Z,1.50
2022-09-18T20:06:55.321Z,1.67
2022-09-18T20:09:28.574Z,1.80
2022-09-18T20:11:58.395Z,1.97
2022-09-18T20:14:26.879Z,1.80
2022-09-18T20:16:55.706Z,1.83
2022-09-18T20:19:24.813Z,1.80
2022-09-18T20:21:53.786Z,2.20
2022-09-18T20:24:22.336Z,2.07
2022-09-18T20:26:51.446Z,2.07
2022-09-18T20:29:21.252Z,2.30
2022-09-18T20:31:50.112Z,1.80
2022-09-18T20:34:22.451Z,2.13
2022-09-18T20:36:52.088Z,1.73
2022-09-18T20:39:21.696Z,2.20
2022-09-18T20:41:50.146Z,2.73
2022-09-18T20:44:24.281Z,2.13
2022-09-18T20:46:56.660Z,2.10
2022-09-18T20:49:25.407Z,2.73
2022-09-18T20:51:54.484Z,2.97
2022-09-18T20:54:23.235Z,2.57
2022-09-18T20:56:51.671Z,2.13
2022-09-18T20:59:21.948Z,2.20
2022-09-18T21:01:51.806Z,2.70
2022-09-18T21:04:22.802Z,2.10
2022-09-18T21:06:56.417Z,2.17
2022-09-18T21:09:26.360Z,1.80
2022-09-18T21:11:56.843Z,2.97
2022-09-18T21:14:29.664Z,2.50
2022-09-18T21:16:58.041Z,2.40
2022-09-18T21:19:28.506Z,2.70
2022-09-18T21:21:57.168Z,2.90
2022-09-18T21:24:26.163Z,2.60
2022-09-18T21:26:54.469Z,2.50
2022-09-18T21:29:25.221Z,2.20
2022-09-18T21:31:59.091Z,2.20
2022-09-18T21:34:31.503Z,2.77
2022-09-18T21:37:01.701Z,2.27
2022-09-18T21:39:31.071Z,2.27
2022-09-18T21:42:01.606Z,2.23
2022-09-18T21:44:31.979Z,2.00
2022-09-18T21:47:04.022Z,2.27
2022-09-18T21:49:37.518Z,2.10
2022-09-18T21:52:07.652Z,2.23
2022-09-18T21:54:36.634Z,1.93
2022-09-18T21:57:05.709Z,2.67
2022-09-18T21:59:36.576Z,2.17
2022-09-18T22:02:09.383Z,2.77
2022-09-18T22:04:41.985Z,2.93
2022-09-18T22:07:11.632Z,2.93
2022-09-18T22:09:39.963Z,3.57
2022-09-18T22:12:08.770Z,3.00
2022-09-18T22:14:38.395Z,2.80
2022-09-18T22:17:09.354Z,3.97
2022-09-18T22:19:41.324Z,3.57
2022-09-18T22:22:11.229Z,4.40
2022-09-18T22:24:39.999Z,3.67
2022-09-18T22:27:08.918Z,3.37
2022-09-18T22:29:39.447Z,3.17
2022-09-18T22:32:10.177Z,2.90
2022-09-18T22:34:38.628Z,2.13
2022-09-18T22:37:08.013Z,2.40
2022-09-18T22:39:36.327Z,2.50
2022-09-18T22:42:05.127Z,2.27
2022-09-18T22:44:33.458Z,2.03
2022-09-18T22:47:02.943Z,2.83
2022-09-18T22:49:32.708Z,3.63
2022-09-18T22:52:01.859Z,3.03
2022-09-18T22:54:30.426Z,3.20
2022-09-18T22:56:58.881Z,2.77
2022-09-18T22:59:28.586Z,2.40
2022-09-18T23:02:01.411Z,2.30
2022-09-18T23:04:31.328Z,2.40
2022-09-18T23:07:02.043Z,2.13
2022-09-18T23:09:32.033Z,2.53
2022-09-18T23:12:00.897Z,2.20
2022-09-18T23:14:31.369Z,1.73
2022-09-18T23:17:00.723Z,1.50
2022-09-18T23:19:34.141Z,1.93
2022-09-18T23:22:04.016Z,2.07
2022-09-18T23:24:32.945Z,2.00
2022-09-18T23:27:01.400Z,1.80
2022-09-18T23:29:31.900Z,1.67
2022-09-18T23:32:00.511Z,1.50
2022-09-18T23:34:33.774Z,2.00
2022-09-18T23:37:03.656Z,1.87
2022-09-18T23:39:33.968Z,1.50
2022-09-18T23:42:04.498Z,1.77
2022-09-18T23:44:33.232Z,1.80
2022-09-18T23:47:02.131Z,1.57
2022-09-18T23:49:30.766Z,1.77
2022-09-18T23:52:00.819Z,1.47
2022-09-18T23:54:32.442Z,1.80
2022-09-18T23:57:00.839Z,1.53
2022-09-18T23:59:29.583Z,1.60
